首页
METAR-TAF:

METAR-TAF

机场 :

桑坦德, 西班牙

纬度: 43-26N, 经度: 003-49W, 海拔: 6米

当前天气观测

该预报发布于22分钟前的20:30 UTC
风速3节,风向东转东南
温度 11°C
湿度 76%
气压 1022 hPa
能见度10公里或以上
1500米以下无云,无积雨云

METAR: LEXJ 282030Z 11003KT CAVOK 11/07 Q1022

时间: 21:52 (20:52 UTC)

预报

该预报发布于52分钟前的20:00 UTC
预报有效从28日的 21点(UTC)到 29日的 21点(UTC)
风速5节,风向多变
能见度10公里或以上
1500米以下无云,无积雨云
成为
从 29日的 10点(UTC)到 29日的 12点(UTC)
风速10节,风向东北
短暂存在
从 29日的 12点(UTC)到 29日的 18点(UTC)
风速15节,风向东转东北,有时为25节阵风
几率 30% :
短暂存在
从 29日的 15点(UTC)到 29日的 21点(UTC)
散云层高于3000英尺, 塔状积云.
雨, 阵雨

TAF: LEXJ 282000Z 2821/2921 VRB05KT CAVOK TX14/2912Z TN05/2906Z BECMG 2910/2912 05010KT TEMPO 2912/2918 06015G25KT PROB30 TEMPO 2915/2921 RA SHRA SCT030TCU

超过4000个机场的气象观测和天气预报(METAR&TAF报告)。

可查询的气象台以黄色和红色小点在地图上表示。

将鼠标移到小点上方,可查看气象台名称。

然后点击查看天气观测和预报。

如需切换地图:点击带黑十字的绿色按钮放大地图;点击带横线的绿色按钮缩小地图;或者点击绿色箭头查看邻近地区的地图。


METAR-TAF: